GFA033 OOMS-OMDB
Flight info
| Callsign | GFA033 |
|---|---|
| Flight time | N/A |
| Altitude | 20000 |
| Route | MCT T508 SOLUD P574 IMPED |
| Aircraft | A320/M-SDE3FGHIRWY/LB1 |
Departure
| Time | 2026-05-01 13:23 |
|---|---|
| Airport | Muscat International Airport (OOMS) |
Arrival
| Time | N/A |
|---|---|
| Airport | Dubai International Airport (OMDB) |
| Time | Latitude | Longitude | Altitude | Speed | Heading |
|---|---|---|---|---|---|
| 2026-05-01 12:34 | 23.60144 | 58.27977 | 39 ft | 0 kts | 175° |
| 2026-05-01 12:40 | 23.58908 | 58.28705 | 39 ft | 0 kts | 85° |
| 2026-05-01 13:01 | 23.58913 | 58.28740 | 38 ft | 5 kts | 77° |
| 2026-05-01 13:01 | 23.58921 | 58.28759 | 38 ft | 0 kts | 57° |
| 2026-05-01 13:07 | 23.59073 | 58.27879 | 40 ft | 7 kts | 265° |
| 2026-05-01 13:07 | 23.59067 | 58.27810 | 40 ft | 12 kts | 263° |
| 2026-05-01 13:07 | 23.59059 | 58.27725 | 40 ft | 11 kts | 263° |
| 2026-05-01 13:08 | 23.59052 | 58.27646 | 40 ft | 10 kts | 266° |
| 2026-05-01 13:08 | 23.59047 | 58.27576 | 40 ft | 9 kts | 266° |
| 2026-05-01 13:08 | 23.59044 | 58.27499 | 40 ft | 13 kts | 267° |
| 2026-05-01 13:08 | 23.59040 | 58.27407 | 41 ft | 11 kts | 267° |
| 2026-05-01 13:09 | 23.59033 | 58.27326 | 41 ft | 10 kts | 262° |
| 2026-05-01 13:09 | 23.59022 | 58.27213 | 41 ft | 21 kts | 264° |
| 2026-05-01 13:09 | 23.59009 | 58.27045 | 42 ft | 23 kts | 265° |
| 2026-05-01 13:09 | 23.58999 | 58.26903 | 42 ft | 11 kts | 265° |
| 2026-05-01 13:10 | 23.58994 | 58.26821 | 42 ft | 10 kts | 266° |
| 2026-05-01 13:10 | 23.58993 | 58.26805 | 42 ft | 0 kts | 266° |
| 2026-05-01 13:10 | 23.58992 | 58.26797 | 42 ft | 7 kts | 266° |
| 2026-05-01 13:11 | 23.59009 | 58.26732 | 40 ft | 8 kts | 316° |
| 2026-05-01 13:11 | 23.59059 | 58.26716 | 43 ft | 7 kts | 353° |
| 2026-05-01 13:11 | 23.59099 | 58.26710 | 41 ft | 5 kts | 353° |
| 2026-05-01 13:11 | 23.59130 | 58.26707 | 43 ft | 4 kts | 354° |
| 2026-05-01 13:12 | 23.59153 | 58.26704 | 43 ft | 3 kts | 354° |
| 2026-05-01 13:12 | 23.59184 | 58.26701 | 41 ft | 7 kts | 354° |
| 2026-05-01 13:12 | 23.59241 | 58.26696 | 41 ft | 13 kts | 355° |
| 2026-05-01 13:12 | 23.59346 | 58.26686 | 42 ft | 17 kts | 355° |
| 2026-05-01 13:13 | 23.59455 | 58.26704 | 39 ft | 16 kts | 40° |
| 2026-05-01 13:13 | 23.59479 | 58.26821 | 42 ft | 17 kts | 87° |
| 2026-05-01 13:13 | 23.59486 | 58.26927 | 41 ft | 13 kts | 85° |
| 2026-05-01 13:13 | 23.59490 | 58.27032 | 41 ft | 14 kts | 86° |
| 2026-05-01 13:14 | 23.59497 | 58.27144 | 41 ft | 16 kts | 85° |
| 2026-05-01 13:14 | 23.59509 | 58.27272 | 41 ft | 18 kts | 83° |
| 2026-05-01 13:14 | 23.59555 | 58.27381 | 41 ft | 16 kts | 16° |
| 2026-05-01 13:14 | 23.59676 | 58.27373 | 39 ft | 19 kts | 354° |
| 2026-05-01 13:15 | 23.59827 | 58.27357 | 40 ft | 24 kts | 355° |
| 2026-05-01 13:15 | 23.59999 | 58.27341 | 40 ft | 26 kts | 355° |
| 2026-05-01 13:15 | 23.60184 | 58.27324 | 40 ft | 27 kts | 355° |
| 2026-05-01 13:15 | 23.60333 | 58.27311 | 40 ft | 4 kts | 355° |
| 2026-05-01 13:16 | 23.60355 | 58.27309 | 40 ft | 3 kts | 355° |
| 2026-05-01 13:16 | 23.60414 | 58.27300 | 40 ft | 12 kts | 349° |
| 2026-05-01 13:16 | 23.60455 | 58.27234 | 40 ft | 11 kts | 268° |
| 2026-05-01 13:17 | 23.60420 | 58.26877 | 41 ft | 10 kts | 264° |
| 2026-05-01 13:17 | 23.60414 | 58.26805 | 41 ft | 9 kts | 264° |
| 2026-05-01 13:18 | 23.60401 | 58.26646 | 41 ft | 14 kts | 265° |
| 2026-05-01 13:18 | 23.60392 | 58.26540 | 41 ft | 17 kts | 265° |
| 2026-05-01 13:18 | 23.60381 | 58.26394 | 41 ft | 21 kts | 266° |
| 2026-05-01 13:18 | 23.60371 | 58.26224 | 41 ft | 24 kts | 266° |
| 2026-05-01 13:19 | 23.60360 | 58.26037 | 41 ft | 21 kts | 265° |
| 2026-05-01 13:19 | 23.60352 | 58.25932 | 42 ft | 10 kts | 265° |
| 2026-05-01 13:19 | 23.60415 | 58.25819 | 42 ft | 13 kts | 354° |
| 2026-05-01 13:20 | 23.60450 | 58.25816 | 41 ft | 0 kts | 356° |
| 2026-05-01 13:21 | 23.60473 | 58.25815 | 40 ft | 6 kts | 356° |
| 2026-05-01 13:21 | 23.60523 | 58.25811 | 40 ft | 9 kts | 356° |
| 2026-05-01 13:21 | 23.60588 | 58.25829 | 40 ft | 10 kts | 47° |
| 2026-05-01 13:21 | 23.60600 | 58.25865 | 39 ft | 0 kts | 84° |
| 2026-05-01 13:22 | 23.60600 | 58.25867 | 39 ft | 0 kts | 84° |
| 2026-05-01 13:22 | 23.60610 | 58.25969 | 39 ft | 48 kts | 84° |
| 2026-05-01 13:22 | 23.60662 | 58.26582 | 40 ft | 119 kts | 84° |
| 2026-05-01 13:22 | 23.60757 | 58.27696 | 53 ft | 173 kts | 86° |
| 2026-05-01 13:23 | 23.60864 | 58.29055 | 560 ft | 182 kts | 81° |
| 2026-05-01 13:23 | 23.61396 | 58.30273 | 1200 ft | 187 kts | 38° |
| 2026-05-01 13:23 | 23.62656 | 58.30750 | 1567 ft | 207 kts | 354° |
| 2026-05-01 13:23 | 23.63997 | 58.30050 | 1918 ft | 233 kts | 314° |
| 2026-05-01 13:24 | 23.64696 | 58.28375 | 2338 ft | 260 kts | 276° |
| 2026-05-01 13:24 | 23.64348 | 58.26402 | 2707 ft | 273 kts | 243° |
| 2026-05-01 13:24 | 23.63058 | 58.24897 | 2772 ft | 275 kts | 215° |
| 2026-05-01 13:25 | 23.60759 | 58.21811 | 2791 ft | 268 kts | 264° |
| 2026-05-01 13:25 | 23.60989 | 58.19831 | 2791 ft | 265 kts | 290° |
| 2026-05-01 13:25 | 23.61610 | 58.17932 | 2790 ft | 266 kts | 290° |
| 2026-05-01 13:25 | 23.62197 | 58.16046 | 2791 ft | 267 kts | 289° |
| 2026-05-01 13:26 | 23.62789 | 58.14102 | 2793 ft | 267 kts | 289° |
| 2026-05-01 13:26 | 23.63367 | 58.12197 | 2811 ft | 267 kts | 289° |
| 2026-05-01 13:26 | 23.63949 | 58.10271 | 2812 ft | 267 kts | 289° |
| 2026-05-01 13:26 | 23.64530 | 58.08354 | 2818 ft | 268 kts | 289° |
| 2026-05-01 13:27 | 23.65122 | 58.06408 | 3479 ft | 270 kts | 289° |
| 2026-05-01 13:27 | 23.65715 | 58.04457 | 4479 ft | 270 kts | 289° |
| 2026-05-01 13:27 | 23.66905 | 58.00553 | 6304 ft | 274 kts | 288° |
| 2026-05-01 13:28 | 23.68110 | 57.96601 | 6772 ft | 273 kts | 288° |
| 2026-05-01 13:28 | 23.68705 | 57.94642 | 6809 ft | 273 kts | 288° |
| 2026-05-01 13:29 | 23.70403 | 57.90948 | 6824 ft | 275 kts | 305° |
| 2026-05-01 13:29 | 23.72777 | 57.87657 | 6823 ft | 276 kts | 307° |
| 2026-05-01 13:30 | 23.77525 | 57.81079 | 6822 ft | 273 kts | 306° |
| 2026-05-01 13:31 | 23.79867 | 57.77826 | 6818 ft | 272 kts | 306° |
| 2026-05-01 13:31 | 23.83385 | 57.72948 | 6821 ft | 273 kts | 306° |
| 2026-05-01 13:32 | 23.85733 | 57.69693 | 6814 ft | 272 kts | 306° |
| 2026-05-01 13:33 | 23.89246 | 57.64810 | 6819 ft | 273 kts | 307° |
| 2026-05-01 13:33 | 23.91600 | 57.61530 | 6818 ft | 275 kts | 307° |
| 2026-05-01 13:34 | 23.93956 | 57.58251 | 6818 ft | 275 kts | 307° |
| 2026-05-01 13:34 | 23.96310 | 57.54975 | 6821 ft | 275 kts | 307° |
| 2026-05-01 13:35 | 23.98655 | 57.51710 | 6816 ft | 271 kts | 306° |
| 2026-05-01 13:35 | 23.99797 | 57.50116 | 6818 ft | 271 kts | 306° |
| 2026-05-01 13:35 | 24.02123 | 57.46867 | 6815 ft | 271 kts | 306° |
| 2026-05-01 13:36 | 24.03267 | 57.45268 | 6812 ft | 271 kts | 306° |
| 2026-05-01 13:36 | 24.04430 | 57.43640 | 6817 ft | 271 kts | 306° |
| 2026-05-01 13:36 | 24.06750 | 57.40393 | 6816 ft | 271 kts | 306° |
| 2026-05-01 13:37 | 24.07925 | 57.38752 | 6816 ft | 271 kts | 306° |
| 2026-05-01 13:37 | 24.09070 | 57.37150 | 6815 ft | 271 kts | 307° |
| 2026-05-01 13:37 | 24.10233 | 57.35523 | 6813 ft | 270 kts | 307° |
| 2026-05-01 13:37 | 24.11392 | 57.33903 | 6811 ft | 270 kts | 307° |
| 2026-05-01 13:38 | 24.13710 | 57.30665 | 6814 ft | 270 kts | 307° |
| 2026-05-01 13:38 | 24.14866 | 57.29044 | 6816 ft | 270 kts | 307° |
| 2026-05-01 13:38 | 24.16022 | 57.27424 | 6812 ft | 270 kts | 307° |
| 2026-05-01 13:39 | 24.17176 | 57.25807 | 6812 ft | 269 kts | 306° |
| 2026-05-01 13:39 | 24.18320 | 57.24201 | 6810 ft | 266 kts | 306° |
| 2026-05-01 13:39 | 24.19456 | 57.22603 | 6813 ft | 265 kts | 306° |
| 2026-05-01 13:39 | 24.20586 | 57.21008 | 6815 ft | 265 kts | 306° |
| 2026-05-01 13:40 | 24.21719 | 57.19412 | 6813 ft | 265 kts | 306° |
| 2026-05-01 13:40 | 24.22849 | 57.17824 | 6814 ft | 265 kts | 306° |
| 2026-05-01 13:40 | 24.23995 | 57.16219 | 6822 ft | 265 kts | 306° |
| 2026-05-01 13:40 | 24.25128 | 57.14632 | 6821 ft | 265 kts | 306° |
| 2026-05-01 13:41 | 24.26258 | 57.13046 | 6820 ft | 265 kts | 306° |
| 2026-05-01 13:41 | 24.27392 | 57.11449 | 6820 ft | 265 kts | 306° |
| 2026-05-01 13:41 | 24.28529 | 57.09850 | 6819 ft | 265 kts | 307° |
| 2026-05-01 13:41 | 24.29661 | 57.08258 | 6819 ft | 265 kts | 307° |
| 2026-05-01 13:42 | 24.30794 | 57.06662 | 6819 ft | 265 kts | 307° |
| 2026-05-01 13:42 | 24.31914 | 57.05081 | 6824 ft | 266 kts | 307° |
| 2026-05-01 13:42 | 24.33058 | 57.03471 | 6822 ft | 265 kts | 307° |
| 2026-05-01 13:42 | 24.34196 | 57.01870 | 6818 ft | 265 kts | 307° |
| 2026-05-01 13:43 | 24.35331 | 57.00271 | 6814 ft | 265 kts | 307° |
| 2026-05-01 13:43 | 24.36463 | 56.98675 | 6816 ft | 265 kts | 307° |
| 2026-05-01 13:43 | 24.37600 | 56.97074 | 6811 ft | 265 kts | 307° |
| 2026-05-01 13:43 | 24.38719 | 56.95496 | 6806 ft | 265 kts | 307° |
| 2026-05-01 13:44 | 24.39847 | 56.93903 | 6812 ft | 265 kts | 307° |
| 2026-05-01 13:44 | 24.40978 | 56.92305 | 6803 ft | 265 kts | 307° |
| 2026-05-01 13:44 | 24.42114 | 56.90703 | 6801 ft | 266 kts | 307° |
| 2026-05-01 13:44 | 24.43251 | 56.89102 | 6797 ft | 266 kts | 307° |
| 2026-05-01 13:45 | 24.44383 | 56.87505 | 6794 ft | 266 kts | 307° |
| 2026-05-01 13:45 | 24.45521 | 56.85897 | 6789 ft | 266 kts | 307° |
| 2026-05-01 13:45 | 24.46651 | 56.84296 | 6790 ft | 265 kts | 307° |
| 2026-05-01 13:45 | 24.47786 | 56.82687 | 6789 ft | 267 kts | 307° |
| 2026-05-01 13:46 | 24.48928 | 56.81068 | 6785 ft | 269 kts | 307° |
| 2026-05-01 13:46 | 24.50069 | 56.79451 | 6787 ft | 268 kts | 307° |
| 2026-05-01 13:46 | 24.51215 | 56.77827 | 6786 ft | 268 kts | 307° |
| 2026-05-01 13:46 | 24.52330 | 56.76247 | 6787 ft | 268 kts | 307° |
| 2026-05-01 13:47 | 24.53468 | 56.74634 | 6788 ft | 268 kts | 307° |
| 2026-05-01 13:47 | 24.54611 | 56.73015 | 6789 ft | 269 kts | 307° |
| 2026-05-01 13:47 | 24.55762 | 56.71389 | 6787 ft | 269 kts | 307° |
| 2026-05-01 13:47 | 24.56907 | 56.69770 | 6790 ft | 267 kts | 306° |
| 2026-05-01 13:48 | 24.58037 | 56.68171 | 6792 ft | 265 kts | 306° |
| 2026-05-01 13:48 | 24.59169 | 56.66569 | 6795 ft | 265 kts | 306° |
| 2026-05-01 13:48 | 24.60301 | 56.64970 | 6795 ft | 265 kts | 306° |
| 2026-05-01 13:48 | 24.61433 | 56.63370 | 6834 ft | 265 kts | 306° |
| 2026-05-01 13:49 | 24.62563 | 56.61770 | 6838 ft | 265 kts | 306° |
| 2026-05-01 13:49 | 24.63690 | 56.60175 | 6843 ft | 264 kts | 306° |
| 2026-05-01 13:49 | 24.64818 | 56.58578 | 6834 ft | 265 kts | 306° |
| 2026-05-01 13:49 | 24.65947 | 56.56979 | 6834 ft | 265 kts | 306° |
| 2026-05-01 13:50 | 24.66701 | 56.55911 | 6834 ft | 266 kts | 306° |
| 2026-05-01 13:50 | 24.68205 | 56.53780 | 6836 ft | 267 kts | 307° |
| 2026-05-01 13:50 | 24.68972 | 56.52692 | 6838 ft | 267 kts | 307° |
| 2026-05-01 13:50 | 24.70110 | 56.51077 | 6851 ft | 268 kts | 306° |
| 2026-05-01 13:51 | 24.71622 | 56.48928 | 6842 ft | 269 kts | 306° |
| 2026-05-01 13:51 | 24.72763 | 56.47305 | 6840 ft | 268 kts | 306° |
| 2026-05-01 13:51 | 24.73534 | 56.46206 | 6841 ft | 268 kts | 306° |
| 2026-05-01 13:51 | 24.75040 | 56.44062 | 6976 ft | 268 kts | 306° |
| 2026-05-01 13:52 | 24.75811 | 56.42963 | 7025 ft | 268 kts | 306° |
| 2026-05-01 13:52 | 24.76952 | 56.41338 | 7038 ft | 268 kts | 306° |
| 2026-05-01 13:52 | 24.78093 | 56.39713 | 7038 ft | 268 kts | 306° |
| 2026-05-01 13:52 | 24.79234 | 56.38090 | 7019 ft | 269 kts | 306° |
| 2026-05-01 13:53 | 24.80372 | 56.36454 | 7023 ft | 269 kts | 305° |
| 2026-05-01 13:53 | 24.82568 | 56.33202 | 7018 ft | 269 kts | 304° |
| 2026-05-01 13:53 | 24.83681 | 56.31548 | 7015 ft | 269 kts | 304° |
| 2026-05-01 13:54 | 24.84806 | 56.29879 | 7008 ft | 268 kts | 304° |
| 2026-05-01 13:54 | 24.85916 | 56.28231 | 7018 ft | 268 kts | 305° |
| 2026-05-01 13:54 | 24.87006 | 56.26611 | 7006 ft | 267 kts | 305° |
| 2026-05-01 13:54 | 24.88062 | 56.24928 | 7029 ft | 267 kts | 299° |
| 2026-05-01 13:55 | 24.88970 | 56.23149 | 7025 ft | 268 kts | 298° |
| 2026-05-01 13:55 | 24.89892 | 56.21348 | 7025 ft | 270 kts | 298° |
| 2026-05-01 13:55 | 24.90812 | 56.19559 | 7028 ft | 267 kts | 298° |
| 2026-05-01 13:55 | 24.91723 | 56.17790 | 7028 ft | 265 kts | 298° |
| 2026-05-01 13:56 | 24.92631 | 56.16027 | 7030 ft | 265 kts | 298° |
| 2026-05-01 13:56 | 24.93538 | 56.14260 | 7027 ft | 264 kts | 298° |
| 2026-05-01 13:56 | 24.94443 | 56.12498 | 7012 ft | 264 kts | 299° |
| 2026-05-01 13:56 | 24.95350 | 56.10732 | 7010 ft | 266 kts | 299° |
| 2026-05-01 13:57 | 24.96262 | 56.08954 | 7022 ft | 265 kts | 299° |
| 2026-05-01 13:57 | 24.97188 | 56.07207 | 7027 ft | 265 kts | 303° |
| 2026-05-01 13:57 | 24.98337 | 56.05613 | 7024 ft | 268 kts | 310° |
| 2026-05-01 13:57 | 24.99591 | 56.04091 | 7026 ft | 267 kts | 310° |
| 2026-05-01 13:58 | 25.00837 | 56.02577 | 7025 ft | 267 kts | 310° |
| 2026-05-01 13:58 | 25.02087 | 56.01049 | 7013 ft | 269 kts | 310° |
| 2026-05-01 13:58 | 25.03330 | 55.99527 | 7002 ft | 260 kts | 310° |
| 2026-05-01 13:58 | 25.04511 | 55.98085 | 6892 ft | 248 kts | 310° |
| 2026-05-01 13:59 | 25.05650 | 55.96692 | 6603 ft | 243 kts | 311° |
| 2026-05-01 13:59 | 25.06778 | 55.95308 | 6268 ft | 242 kts | 311° |
| 2026-05-01 13:59 | 25.07892 | 55.93938 | 6033 ft | 238 kts | 311° |
| 2026-05-01 13:59 | 25.09002 | 55.92573 | 6026 ft | 239 kts | 311° |
| 2026-05-01 14:00 | 25.10120 | 55.91199 | 6014 ft | 241 kts | 311° |
| 2026-05-01 14:00 | 25.11236 | 55.89828 | 6015 ft | 241 kts | 311° |
| 2026-05-01 14:00 | 25.12358 | 55.88453 | 6024 ft | 240 kts | 311° |
| 2026-05-01 14:00 | 25.13474 | 55.87085 | 6025 ft | 240 kts | 311° |
| 2026-05-01 14:01 | 25.14587 | 55.85721 | 5900 ft | 237 kts | 311° |
| 2026-05-01 14:01 | 25.15655 | 55.84335 | 5498 ft | 236 kts | 306° |
| 2026-05-01 14:01 | 25.16540 | 55.82816 | 5042 ft | 237 kts | 302° |
| 2026-05-01 14:01 | 25.17355 | 55.81227 | 4477 ft | 243 kts | 291° |
| 2026-05-01 14:02 | 25.17481 | 55.79338 | 4102 ft | 257 kts | 261° |
| 2026-05-01 14:02 | 25.16755 | 55.77504 | 4006 ft | 267 kts | 244° |
| 2026-05-01 14:02 | 25.15818 | 55.75777 | 4013 ft | 271 kts | 242° |
| 2026-05-01 14:02 | 25.14834 | 55.73996 | 4013 ft | 272 kts | 242° |
| 2026-05-01 14:03 | 25.13863 | 55.72198 | 4019 ft | 272 kts | 248° |
| 2026-05-01 14:03 | 25.13411 | 55.70234 | 4022 ft | 263 kts | 269° |
| 2026-05-01 14:03 | 25.13344 | 55.68215 | 4014 ft | 263 kts | 274° |
| 2026-05-01 14:03 | 25.13581 | 55.66258 | 3989 ft | 259 kts | 288° |
| 2026-05-01 14:04 | 25.14158 | 55.64369 | 3594 ft | 256 kts | 292° |
| 2026-05-01 14:04 | 25.14761 | 55.62568 | 3151 ft | 255 kts | 292° |
| 2026-05-01 14:04 | 25.15400 | 55.60721 | 2647 ft | 256 kts | 292° |
| 2026-05-01 14:04 | 25.16037 | 55.58897 | 2224 ft | 255 kts | 292° |
| 2026-05-01 14:05 | 25.16622 | 55.57057 | 2020 ft | 256 kts | 281° |
| 2026-05-01 14:05 | 25.16775 | 55.55120 | 2014 ft | 256 kts | 273° |
| 2026-05-01 14:05 | 25.16826 | 55.53154 | 2012 ft | 255 kts | 272° |
| 2026-05-01 14:05 | 25.17130 | 55.51233 | 2004 ft | 254 kts | 293° |
| 2026-05-01 14:06 | 25.17991 | 55.49537 | 2007 ft | 256 kts | 301° |
| 2026-05-01 14:06 | 25.18932 | 55.47868 | 2007 ft | 258 kts | 301° |
| 2026-05-01 14:06 | 25.19870 | 55.46192 | 1764 ft | 254 kts | 301° |
| 2026-05-01 14:06 | 25.20793 | 55.44530 | 1324 ft | 253 kts | 301° |
| 2026-05-01 14:07 | 25.21709 | 55.42879 | 933 ft | 252 kts | 300° |
| 2026-05-01 14:07 | 25.22603 | 55.41259 | 671 ft | 239 kts | 300° |
| 2026-05-01 14:07 | 25.23419 | 55.39752 | 250 ft | 211 kts | 299° |
| 2026-05-01 14:08 | 25.24742 | 55.37443 | 351 ft | 152 kts | 301° |
| 2026-05-01 14:08 | 25.25193 | 55.36611 | 134 ft | 151 kts | 300° |